Time;durP1;ratioP1;P1;durP2;ratioP2;P2;SDS_P1;SDS_P2;PMS_P1;PMS_P2;Temp;Humidity;BMP_temperature;BMP_pressure;BME280_temperature;BME280_humidity;BME280_pressure;Samples;Min_cycle;Max_cycle;Signal;HPM_P1;HPM_P2
2023/07/31 00:00:39;;;;;;;3.50;2.00;;;;;;;17.77;89.42;98176.03;4154324;28;20987;-82
2023/07/31 00:02:42;;;;;;;3.43;2.07;;;;;;;17.77;89.38;98185.72;4140428;28;21188;-82
2023/07/31 00:04:46;;;;;;;3.53;2.17;;;;;;;17.77;89.33;98181.31;4142648;28;21263;-81
2023/07/31 00:06:49;;;;;;;2.57;1.93;;;;;;;17.77;88.36;98181.31;4154751;28;20634;-80
2023/07/31 00:08:52;;;;;;;4.83;2.37;;;;;;;17.74;88.99;98184.25;4155253;28;20656;-80
2023/07/31 00:10:55;;;;;;;4.30;1.80;;;;;;;17.74;89.16;98178.97;4141107;28;20682;-80
2023/07/31 00:12:59;;;;;;;3.03;2.23;;;;;;;17.73;89.89;98182.56;4159417;28;21038;-82
2023/07/31 00:15:02;;;;;;;3.73;2.00;;;;;;;17.72;89.75;98183.53;4154171;28;20642;-80
2023/07/31 00:17:06;;;;;;;6.50;2.27;;;;;;;17.70;90.56;98179.41;4143345;28;20636;-81
2023/07/31 00:19:09;;;;;;;4.27;1.80;;;;;;;17.66;90.80;98185.94;4133804;28;20748;-83
2023/07/31 00:21:12;;;;;;;2.77;1.93;;;;;;;17.62;91.39;98174.00;4155881;28;20632;-84
2023/07/31 00:23:15;;;;;;;4.83;2.40;;;;;;;17.59;91.09;98175.16;4158483;28;20633;-85
2023/07/31 00:25:18;;;;;;;5.27;2.20;;;;;;;17.57;92.01;98177.06;4142490;28;20628;-81
2023/07/31 00:27:21;;;;;;;2.87;2.00;;;;;;;17.53;91.97;98178.38;4154341;28;20634;-82
2023/07/31 00:29:27;;;;;;;2.93;1.73;;;;;;;17.50;92.53;98178.66;4141723;28;20632;-81
2023/07/31 00:31:30;;;;;;;4.77;2.13;;;;;;;17.48;91.94;98171.84;4138416;28;20647;-81
2023/07/31 00:33:36;;;;;;;2.80;1.90;;;;;;;17.47;93.06;98170.22;4121737;28;20725;-81
2023/07/31 00:35:39;;;;;;;3.10;1.97;;;;;;;17.45;92.59;98176.59;4156159;28;20986;-82
2023/07/31 00:37:42;;;;;;;3.20;2.07;;;;;;;17.43;92.68;98181.19;4139475;28;20744;-81
2023/07/31 00:39:45;;;;;;;2.57;1.80;;;;;;;17.39;93.61;98185.91;4154501;28;21013;-82
2023/07/31 00:41:48;;;;;;;5.10;2.00;;;;;;;17.37;93.02;98182.59;4157787;28;20668;-78
2023/07/31 00:43:53;;;;;;;3.30;1.77;;;;;;;17.32;93.27;98192.75;4145766;28;20725;-82
2023/07/31 00:45:57;;;;;;;2.83;2.00;;;;;;;17.28;93.89;98191.34;4140754;28;20705;-82
2023/07/31 00:48:00;;;;;;;7.90;2.80;;;;;;;17.25;94.35;98199.53;4140982;28;20640;-79
2023/07/31 00:50:04;;;;;;;3.30;2.10;;;;;;;17.22;94.16;98197.19;4137591;28;20806;-81
2023/07/31 00:52:09;;;;;;;3.30;1.83;;;;;;;17.20;93.36;98198.28;4159009;28;20639;-80
2023/07/31 00:54:12;;;;;;;3.20;1.73;;;;;;;17.13;93.95;98195.38;4127186;28;20679;-80
2023/07/31 00:56:16;;;;;;;3.23;2.20;;;;;;;17.08;93.22;98194.16;4136204;28;20738;-80
2023/07/31 00:58:19;;;;;;;4.00;1.90;;;;;;;17.04;92.71;98190.13;4133782;28;20644;-82
2023/07/31 01:00:23;;;;;;;3.50;2.60;;;;;;;17.02;92.96;98190.28;4155718;28;21213;-79
2023/07/31 01:02:26;;;;;;;6.93;1.90;;;;;;;16.98;94.20;98186.25;4127694;28;21039;-81
2023/07/31 01:04:29;;;;;;;4.13;1.90;;;;;;;16.97;94.85;98180.31;4123468;28;20684;-82
2023/07/31 01:06:38;;;;;;;5.30;1.97;;;;;;;16.97;94.16;98194.31;4139373;28;20723;-81
2023/07/31 01:08:43;;;;;;;3.67;2.40;;;;;;;16.96;94.46;98195.28;4140767;28;20653;-82
2023/07/31 01:10:51;;;;;;;3.37;2.57;;;;;;;16.96;94.69;98195.28;4148477;28;20626;-82
2023/07/31 01:12:54;;;;;;;3.47;2.10;;;;;;;16.95;95.78;98188.34;4138191;28;21206;-82
2023/07/31 01:15:03;;;;;;;3.90;2.40;;;;;;;16.92;94.72;98185.19;4122955;28;20643;-81
2023/07/31 01:17:06;;;;;;;5.10;2.43;;;;;;;16.88;95.13;98181.97;4156749;28;20641;-81
2023/07/31 01:19:12;;;;;;;3.53;2.13;;;;;;;16.87;94.17;98179.47;4115055;28;20624;-81
2023/07/31 01:21:24;;;;;;;5.47;2.10;;;;;;;16.85;94.24;98179.63;4134723;28;20669;-79
2023/07/31 01:23:48;;;;;;;2.17;1.87;;;;;;;16.83;93.76;98183.38;4153602;28;21299;-81
2023/07/31 01:26:01;;;;;;;3.90;2.20;;;;;;;16.78;94.58;98175.91;4154393;28;20649;-82
2023/07/31 01:28:06;;;;;;;3.40;2.00;;;;;;;16.73;94.16;98164.97;4136950;28;20627;-81
2023/07/31 01:30:14;;;;;;;3.07;2.10;;;;;;;16.69;94.51;98157.47;4154805;28;20634;-81
2023/07/31 01:32:19;;;;;;;3.13;1.90;;;;;;;16.62;94.35;98159.81;4141582;28;20696;-80
2023/07/31 01:34:21;;;;;;;3.63;2.03;;;;;;;16.57;94.71;98148.88;4142961;28;21541;-81
2023/07/31 01:36:24;;;;;;;3.30;2.27;;;;;;;16.55;94.66;98145.56;4141578;28;20635;-71
2023/07/31 01:38:27;;;;;;;4.03;2.50;;;;;;;16.55;93.77;98145.56;4140296;28;20730;-72
2023/07/31 01:40:31;;;;;;;2.77;2.13;;;;;;;16.54;94.69;98145.72;4152576;28;20660;-73
2023/07/31 01:42:35;;;;;;;3.90;2.57;;;;;;;16.54;94.55;98146.53;4142210;28;20631;-72
2023/07/31 01:44:38;;;;;;;4.10;2.63;;;;;;;16.56;94.10;98138.50;4139271;28;21033;-74
2023/07/31 01:46:41;;;;;;;4.93;2.40;;;;;;;16.57;93.30;98146.25;4139476;28;20646;-74
2023/07/31 01:48:45;;;;;;;3.40;2.40;;;;;;;16.61;95.01;98147.66;4134543;28;20653;-72
2023/07/31 01:50:48;;;;;;;5.40;2.20;;;;;;;16.62;94.65;98141.38;4128360;28;20620;-72
2023/07/31 01:52:51;;;;;;;4.80;2.47;;;;;;;16.64;92.88;98138.59;4137925;28;20702;-72
2023/07/31 01:54:54;;;;;;;5.00;2.87;;;;;;;16.62;94.12;98138.75;4140797;28;20623;-73
2023/07/31 01:56:57;;;;;;;8.50;2.80;;;;;;;16.58;94.66;98136.53;4155614;28;20621;-73
2023/07/31 01:59:02;;;;;;;3.33;2.10;;;;;;;16.57;94.85;98146.25;4144843;28;21294;-72
2023/07/31 02:01:04;;;;;;;5.13;2.10;;;;;;;16.57;94.87;98140.16;4144983;28;20653;-72
2023/07/31 02:03:09;;;;;;;2.43;2.00;;;;;;;16.60;92.24;98135.44;4127514;28;20640;-73
2023/07/31 02:05:13;;;;;;;3.30;2.80;;;;;;;16.63;92.95;98132.53;4128220;28;20654;-74
2023/07/31 02:07:16;;;;;;;3.80;2.70;;;;;;;16.67;92.74;98130.44;4125894;28;20671;-72
2023/07/31 02:09:19;;;;;;;2.80;1.97;;;;;;;16.66;93.57;98136.69;4141716;28;20749;-73
2023/07/31 02:11:22;;;;;;;6.00;2.13;;;;;;;16.61;92.41;98134.47;4139381;28;20626;-72
2023/07/31 02:13:26;;;;;;;3.67;2.43;;;;;;;16.56;93.32;98131.41;4142078;28;20768;-72
2023/07/31 02:15:30;;;;;;;5.17;2.70;;;;;;;16.53;93.17;98131.69;4138016;28;20644;-73
2023/07/31 02:17:33;;;;;;;7.13;2.60;;;;;;;16.51;94.48;98131.00;4135131;28;20970;-72
2023/07/31 02:19:36;;;;;;;3.80;2.30;;;;;;;16.50;95.56;98127.69;4136135;28;21222;-72
2023/07/31 02:21:39;;;;;;;3.10;2.43;;;;;;;16.49;95.77;98126.03;4124389;28;21254;-73
2023/07/31 02:23:43;;;;;;;4.10;2.30;;;;;;;16.48;95.29;98121.72;4139548;28;20629;-72
2023/07/31 02:25:47;;;;;;;3.67;2.90;;;;;;;16.46;94.23;98121.03;4158210;28;20641;-73
2023/07/31 02:27:50;;;;;;;3.07;2.30;;;;;;;16.44;94.39;98123.00;4124628;28;20643;-72
2023/07/31 02:29:53;;;;;;;3.57;2.13;;;;;;;16.40;94.95;98124.22;4155174;28;21266;-74
2023/07/31 02:31:58;;;;;;;3.80;2.10;;;;;;;16.38;94.55;98127.00;4156286;28;21078;-74
2023/07/31 02:34:01;;;;;;;3.03;2.20;;;;;;;16.34;96.23;98123.00;4135338;28;20651;-75
2023/07/31 02:36:04;;;;;;;3.20;2.00;;;;;;;16.34;95.00;98120.38;4141446;28;20636;-74
2023/07/31 02:38:07;;;;;;;3.10;2.10;;;;;;;16.34;95.33;98122.16;4123516;28;20642;-72
2023/07/31 02:40:11;;;;;;;3.07;2.47;;;;;;;16.32;95.94;98119.66;4136151;28;20986;-75
2023/07/31 02:42:15;;;;;;;3.80;2.50;;;;;;;16.27;94.75;98119.25;4157365;28;20640;-75
2023/07/31 02:44:18;;;;;;;2.90;2.23;;;;;;;16.25;94.96;98109.81;4142450;28;20633;-74
2023/07/31 02:46:24;;;;;;;3.67;2.33;;;;;;;16.25;94.50;98109.81;4138548;28;21021;-74
2023/07/31 02:48:28;;;;;;;3.43;1.70;;;;;;;16.24;95.80;98105.53;4156399;28;20625;-75
2023/07/31 02:50:32;;;;;;;4.00;2.17;;;;;;;16.25;95.86;98107.19;4137484;28;20643;-74
2023/07/31 02:52:36;;;;;;;3.20;2.00;;;;;;;16.23;95.30;98093.34;4136822;28;20628;-75
2023/07/31 02:54:38;;;;;;;4.10;2.43;;;;;;;16.22;95.10;98091.66;4136708;28;20634;-75
2023/07/31 02:56:41;;;;;;;8.03;2.50;;;;;;;16.20;96.12;98093.59;4139783;28;20645;-75
2023/07/31 02:58:44;;;;;;;3.70;2.23;;;;;;;16.20;97.13;98088.31;4137139;28;20631;-76
2023/07/31 03:00:48;;;;;;;3.50;2.17;;;;;;;16.20;97.12;98094.41;4136589;28;20762;-74
2023/07/31 03:02:51;;;;;;;3.10;2.13;;;;;;;16.21;96.28;98090.00;4138317;28;20641;-74
2023/07/31 03:04:54;;;;;;;3.50;2.30;;;;;;;16.21;97.38;98090.00;4132384;28;20666;-74
2023/07/31 03:06:58;;;;;;;3.40;2.47;;;;;;;16.20;95.52;98093.59;4139767;28;20652;-71
2023/07/31 03:09:00;;;;;;;3.00;2.60;;;;;;;16.18;97.71;98090.28;4134666;28;20699;-74
2023/07/31 03:11:04;;;;;;;4.37;2.37;;;;;;;16.17;97.17;98089.41;4155210;28;20642;-76
2023/07/31 03:13:07;;;;;;;4.00;2.50;;;;;;;16.15;96.65;98091.38;4142329;28;20642;-76
2023/07/31 03:15:10;;;;;;;3.40;2.10;;;;;;;16.15;96.57;98086.09;4126564;28;20641;-75
2023/07/31 03:17:14;;;;;;;2.93;1.77;;;;;;;16.13;98.10;98089.84;4116705;28;20640;-74
2023/07/31 03:19:17;;;;;;;3.10;2.20;;;;;;;16.11;97.26;98097.03;4153281;28;20725;-77
2023/07/31 03:21:21;;;;;;;8.67;2.80;;;;;;;16.11;95.90;98097.03;4153028;28;21227;-74
2023/07/31 03:23:25;;;;;;;3.30;2.20;;;;;;;16.09;98.19;98104.25;4136673;28;20654;-74
2023/07/31 03:25:28;;;;;;;5.73;2.10;;;;;;;16.10;97.57;98108.53;4152006;28;21119;-75
2023/07/31 03:27:31;;;;;;;2.93;2.30;;;;;;;16.10;96.76;98111.16;4137975;28;20734;-75
2023/07/31 03:29:34;;;;;;;3.80;2.67;;;;;;;16.08;97.66;98106.03;4155546;28;20651;-74
2023/07/31 03:31:38;;;;;;;6.27;2.17;;;;;;;16.09;98.67;98112.16;4137183;28;20634;-75
2023/07/31 03:33:41;;;;;;;3.33;2.37;;;;;;;16.05;97.44;98110.75;4148455;28;20629;-74
2023/07/31 03:35:44;;;;;;;5.20;2.00;;;;;;;16.01;98.27;98104.09;4138330;28;20733;-75
2023/07/31 03:37:48;;;;;;;2.50;1.93;;;;;;;15.98;98.22;98114.06;4121784;28;20727;-76
2023/07/31 03:39:51;;;;;;;4.30;2.20;;;;;;;15.95;97.91;98109.94;4138422;28;20743;-75
2023/07/31 03:41:54;;;;;;;3.10;2.20;;;;;;;15.95;97.67;98106.44;4155707;28;20667;-76
2023/07/31 03:43:57;;;;;;;2.60;2.00;;;;;;;15.94;96.52;98104.81;4139192;28;20985;-75
2023/07/31 03:46:01;;;;;;;4.07;2.17;;;;;;;15.91;98.32;98105.91;4142441;28;20644;-75
2023/07/31 03:48:06;;;;;;;3.63;2.50;;;;;;;15.89;98.27;98109.63;4157453;28;20624;-75
2023/07/31 03:50:09;;;;;;;3.47;2.20;;;;;;;15.90;98.90;98101.59;4138226;28;20728;-74
2023/07/31 03:52:12;;;;;;;3.47;2.37;;;;;;;15.92;99.05;98096.19;4139819;28;20630;-75
2023/07/31 03:54:17;;;;;;;4.43;2.63;;;;;;;15.91;97.47;98094.56;4155332;28;20650;-74
2023/07/31 03:56:20;;;;;;;3.97;2.70;;;;;;;15.88;98.67;98103.53;4159822;28;20641;-75
2023/07/31 03:58:23;;;;;;;2.93;2.50;;;;;;;15.87;98.36;98107.13;4155786;28;20636;-75
2023/07/31 04:00:27;;;;;;;4.07;2.50;;;;;;;15.86;97.28;98100.22;4136544;28;20674;-74
2023/07/31 04:02:30;;;;;;;4.03;2.50;;;;;;;15.86;97.97;98108.13;4139050;28;20666;-74
2023/07/31 04:04:33;;;;;;;3.80;2.30;;;;;;;15.86;96.51;98108.13;4153480;28;21417;-74
2023/07/31 04:06:38;;;;;;;2.63;2.00;;;;;;;15.86;96.72;98108.13;4140187;28;20639;-75
2023/07/31 04:08:41;;;;;;;3.40;2.50;;;;;;;15.85;98.37;98109.09;4158838;28;20724;-74
2023/07/31 04:10:47;;;;;;;5.10;2.43;;;;;;;15.88;97.53;98105.34;4125023;28;20649;-75
2023/07/31 04:12:50;;;;;;;3.47;2.97;;;;;;;15.87;96.69;98101.88;4142563;28;20997;-75
2023/07/31 04:14:53;;;;;;;5.40;2.20;;;;;;;15.89;98.57;98109.63;4133044;28;21132;-75
2023/07/31 04:16:56;;;;;;;2.83;2.37;;;;;;;15.91;97.95;98105.91;4132004;28;20688;-75
2023/07/31 04:18:59;;;;;;;5.53;2.40;;;;;;;15.92;97.73;98099.69;4133133;28;20649;-76
2023/07/31 04:21:03;;;;;;;4.20;2.70;;;;;;;15.91;98.47;98097.19;4153219;28;21005;-75
2023/07/31 04:23:05;;;;;;;3.27;2.57;;;;;;;15.94;97.02;98103.00;4138694;28;21062;-74
2023/07/31 04:25:08;;;;;;;3.40;2.40;;;;;;;15.98;96.58;98104.38;4135687;28;20638;-74
2023/07/31 04:27:13;;;;;;;2.60;2.10;;;;;;;16.00;96.14;98102.44;4155408;28;20641;-74
2023/07/31 04:29:16;;;;;;;3.87;2.27;;;;;;;16.03;97.94;98096.91;4159488;28;20719;-74
2023/07/31 04:31:19;;;;;;;2.60;2.13;;;;;;;16.06;97.92;98099.28;4155766;28;20732;-74
2023/07/31 04:33:22;;;;;;;4.00;2.20;;;;;;;16.08;97.52;98103.41;4136839;28;20715;-76
2023/07/31 04:35:25;;;;;;;5.23;2.70;;;;;;;16.10;98.42;98100.63;4136456;28;20649;-76
2023/07/31 04:37:28;;;;;;;3.83;2.53;;;;;;;16.12;97.80;98101.34;4133191;28;20645;-76
2023/07/31 04:39:32;;;;;;;3.43;2.70;;;;;;;16.14;98.22;98105.50;4154819;28;20997;-75
2023/07/31 04:41:35;;;;;;;3.50;2.43;;;;;;;16.17;97.42;98104.38;4153519;28;20745;-75
2023/07/31 04:43:40;;;;;;;3.33;2.20;;;;;;;16.20;97.09;98094.41;4156447;28;20647;-75
2023/07/31 04:45:47;;;;;;;5.30;2.77;;;;;;;16.22;96.93;98099.56;4137091;28;20636;-75
2023/07/31 04:47:50;;;;;;;4.17;2.47;;;;;;;16.25;97.14;98097.50;4137527;28;21430;-74
2023/07/31 04:49:53;;;;;;;4.87;2.80;;;;;;;16.32;98.72;98108.31;4151361;28;20672;-75
2023/07/31 04:51:56;;;;;;;2.90;2.60;;;;;;;16.37;98.06;98106.06;4153112;28;20619;-76
2023/07/31 04:53:59;;;;;;;3.60;2.67;;;;;;;16.41;96.47;98107.47;4156074;28;21248;-75
2023/07/31 04:56:02;;;;;;;3.60;3.10;;;;;;;16.43;97.69;98111.59;4157687;28;20681;-75
2023/07/31 04:58:05;;;;;;;3.40;2.70;;;;;;;16.45;96.91;98107.06;4154709;28;21130;-75
2023/07/31 05:00:11;;;;;;;3.53;2.50;;;;;;;16.46;96.02;98113.13;4120258;28;20651;-75
2023/07/31 05:02:13;;;;;;;2.97;2.40;;;;;;;16.47;96.87;98112.19;4123087;28;20655;-74
2023/07/31 05:04:16;;;;;;;5.77;2.87;;;;;;;16.50;96.31;98102.19;4138645;28;20707;-74
2023/07/31 05:06:20;;;;;;;3.07;2.20;;;;;;;16.53;97.00;98104.53;4142079;28;20638;-84
2023/07/31 05:08:23;;;;;;;4.10;2.60;;;;;;;16.55;97.86;98100.81;4140002;28;20625;-84
2023/07/31 05:10:26;;;;;;;4.63;2.90;;;;;;;16.58;97.94;98100.53;4157190;28;20644;-82
2023/07/31 05:12:29;;;;;;;3.67;2.97;;;;;;;16.62;98.89;98096.59;4152459;28;20644;-84
2023/07/31 05:14:32;;;;;;;3.90;2.80;;;;;;;16.66;97.90;98097.19;4150625;28;20653;-84
2023/07/31 05:16:37;;;;;;;3.90;2.57;;;;;;;16.66;98.20;98092.72;4153486;28;20676;-84
2023/07/31 05:18:41;;;;;;;3.97;2.70;;;;;;;16.67;98.21;98094.41;4152906;28;21278;-79
2023/07/31 05:20:44;;;;;;;3.07;2.67;;;;;;;16.69;97.20;98091.63;4138699;28;20629;-83
2023/07/31 05:22:47;;;;;;;3.00;2.50;;;;;;;16.72;97.86;98093.97;4149412;28;21059;-82
2023/07/31 05:24:50;;;;;;;3.80;2.57;;;;;;;16.74;96.12;98100.75;4136928;28;20627;-85
2023/07/31 05:26:52;;;;;;;8.10;2.80;;;;;;;16.77;97.12;98089.94;4130493;28;20640;-82
2023/07/31 05:28:55;;;;;;;3.73;2.70;;;;;;;16.80;96.39;98086.19;4150913;28;20981;-83
2023/07/31 05:31:00;;;;;;;5.17;2.40;;;;;;;16.85;95.97;98086.56;4137569;28;21232;-84
2023/07/31 05:33:05;;;;;;;3.23;2.47;;;;;;;16.90;96.53;98081.69;4138860;28;21260;-84
2023/07/31 05:35:08;;;;;;;2.83;2.53;;;;;;;16.94;96.72;98085.72;4154327;28;20641;-83
2023/07/31 05:37:12;;;;;;;3.00;2.37;;;;;;;16.98;97.38;98087.94;4151994;28;20667;-82
2023/07/31 05:39:15;;;;;;;3.37;2.60;;;;;;;17.04;97.68;98087.34;4134600;28;21120;-85
2023/07/31 05:41:18;;;;;;;3.07;2.57;;;;;;;17.09;96.81;98087.75;4154477;28;20663;-81
2023/07/31 05:43:20;;;;;;;6.23;2.83;;;;;;;17.14;98.29;98090.78;4146912;28;20654;-84
2023/07/31 05:45:23;;;;;;;7.33;3.00;;;;;;;17.28;98.26;98095.63;4152943;28;20737;-84
2023/07/31 05:47:26;;;;;;;3.70;2.60;;;;;;;17.39;97.28;98098.88;4140003;28;21067;-84
2023/07/31 05:49:31;;;;;;;3.03;2.47;;;;;;;17.46;97.90;98095.50;4153985;28;20635;-84
2023/07/31 05:51:34;;;;;;;3.33;2.50;;;;;;;17.54;97.53;98092.13;4139359;28;21013;-84
2023/07/31 05:53:40;;;;;;;4.10;2.50;;;;;;;17.62;96.83;98087.78;4156084;28;20642;-84
2023/07/31 05:55:43;;;;;;;8.33;2.87;;;;;;;17.88;96.92;98101.09;4144474;28;20675;-84
2023/07/31 05:57:46;;;;;;;6.60;3.00;;;;;;;18.35;95.85;98098.94;4138098;28;20728;-85
2023/07/31 05:59:50;;;;;;;3.57;2.30;;;;;;;18.79;93.71;98101.41;4155169;28;20632;-84
2023/07/31 06:01:53;;;;;;;2.60;2.00;;;;;;;19.06;91.74;98107.44;4141714;28;20727;-84
2023/07/31 06:03:56;;;;;;;4.10;2.43;;;;;;;19.08;90.78;98100.16;4158389;28;20681;-82
2023/07/31 06:06:01;;;;;;;5.33;3.30;;;;;;;19.02;89.37;98089.41;4140494;28;20708;-84
2023/07/31 06:08:04;;;;;;;4.37;2.77;;;;;;;18.96;90.58;98088.16;4154424;28;20632;-85
2023/07/31 06:10:09;;;;;;;4.33;2.53;;;;;;;19.00;92.27;98083.38;4157173;28;20625;-84
2023/07/31 06:12:17;;;;;;;7.83;2.20;;;;;;;19.26;91.35;98098.28;4152575;28;20674;-84
2023/07/31 06:14:19;;;;;;;3.00;1.80;;;;;;;19.71;89.55;98094.34;4157261;28;20629;-84
2023/07/31 06:16:22;;;;;;;2.60;2.13;;;;;;;20.21;87.46;98101.25;4151565;28;20656;-82
2023/07/31 06:18:26;;;;;;;2.60;2.00;;;;;;;20.44;85.29;98096.97;4144216;28;20723;-82
2023/07/31 06:20:29;;;;;;;4.07;2.10;;;;;;;20.63;84.94;98102.78;4142578;28;20777;-81
2023/07/31 06:22:33;;;;;;;4.47;2.13;;;;;;;21.04;83.54;98099.94;4141366;28;20691;-80
2023/07/31 06:24:36;;;;;;;4.77;2.10;;;;;;;21.18;81.18;98091.25;4143083;28;20646;-80
2023/07/31 06:26:39;;;;;;;3.63;2.53;;;;;;;21.12;81.15;98094.59;4156737;28;20653;-81
2023/07/31 06:28:43;;;;;;;7.67;2.30;;;;;;;21.04;80.32;98094.63;4154649;28;20673;-80
2023/07/31 06:30:47;;;;;;;4.17;2.50;;;;;;;21.04;82.57;98097.28;4154651;28;20993;-82
2023/07/31 06:32:50;;;;;;;2.93;2.47;;;;;;;21.44;82.94;98103.31;4146079;28;20623;-82
2023/07/31 06:34:54;;;;;;;2.93;2.00;;;;;;;21.83;80.88;98101.50;4142655;28;20661;-80
2023/07/31 06:36:57;;;;;;;4.87;2.50;;;;;;;22.06;79.00;98102.38;4142570;28;20679;-82
2023/07/31 06:39:02;;;;;;;3.00;2.40;;;;;;;22.39;78.95;98108.16;4152710;28;20619;-82
2023/07/31 06:41:05;;;;;;;3.03;2.20;;;;;;;22.62;76.85;98105.50;4155241;28;20629;-81
2023/07/31 06:43:08;;;;;;;3.17;2.10;;;;;;;22.91;76.09;98112.56;4133285;28;20688;-81
2023/07/31 06:45:11;;;;;;;3.80;2.10;;;;;;;23.11;75.06;98107.53;4136517;28;20620;-82
2023/07/31 06:47:14;;;;;;;3.90;2.60;;;;;;;23.34;75.27;98104.63;4155793;28;21391;-82
2023/07/31 06:49:17;;;;;;;4.73;2.73;;;;;;;23.57;73.55;98104.53;4124229;28;21047;-80
2023/07/31 06:51:20;;;;;;;4.90;3.03;;;;;;;23.67;70.78;98092.63;4139431;28;20651;-82
2023/07/31 06:53:24;;;;;;;6.20;3.50;;;;;;;23.56;68.63;98097.53;4149186;28;20742;-82
2023/07/31 06:55:28;;;;;;;3.43;2.03;;;;;;;23.44;69.99;98091.88;4143320;28;20741;-81
2023/07/31 06:57:31;;;;;;;4.23;2.10;;;;;;;23.57;68.38;98093.88;4134689;28;20644;-79
2023/07/31 06:59:34;;;;;;;3.37;1.80;;;;;;;23.72;70.13;98098.22;4148273;28;21093;-81
2023/07/31 07:01:38;;;;;;;3.13;2.40;;;;;;;24.03;70.19;98102.28;4152225;28;20643;-81
2023/07/31 07:03:41;;;;;;;3.90;1.67;;;;;;;24.24;67.81;98095.16;4154204;28;20689;-82
2023/07/31 07:05:44;;;;;;;3.27;1.90;;;;;;;24.45;68.48;98105.88;4130833;28;21064;-82
2023/07/31 07:07:50;;;;;;;3.40;2.00;;;;;;;24.55;67.71;98103.72;4155053;28;20638;-81
2023/07/31 07:09:53;;;;;;;2.63;1.80;;;;;;;24.76;67.38;98098.34;4134835;28;20637;-80
2023/07/31 07:11:57;;;;;;;4.20;1.87;;;;;;;24.71;65.71;98095.44;4136037;28;21031;-81
2023/07/31 07:14:00;;;;;;;3.70;1.57;;;;;;;24.90;66.98;98089.44;4149943;28;20642;-81
2023/07/31 07:16:04;;;;;;;4.50;2.13;;;;;;;24.96;64.85;98086.81;4138180;28;20672;-82
2023/07/31 07:18:07;;;;;;;3.73;1.93;;;;;;;25.00;65.39;98085.41;4142684;28;20651;-80
2023/07/31 07:20:10;;;;;;;3.13;2.10;;;;;;;25.21;67.03;98086.22;4139019;28;20680;-80
2023/07/31 07:22:14;;;;;;;3.93;1.90;;;;;;;25.50;67.39;98077.97;4153319;28;20766;-82
2023/07/31 07:24:17;;;;;;;4.70;1.80;;;;;;;25.55;64.46;98082.72;4131568;28;20661;-82
2023/07/31 07:26:20;;;;;;;3.70;2.03;;;;;;;25.19;64.28;98076.75;4139233;28;21176;-82
2023/07/31 07:28:25;;;;;;;3.70;1.60;;;;;;;24.90;65.37;98066.22;4135905;28;20730;-82
2023/07/31 07:30:28;;;;;;;2.83;1.87;;;;;;;25.12;66.27;98069.69;4135831;28;21018;-83
2023/07/31 07:32:31;;;;;;;2.90;1.90;;;;;;;25.28;64.86;98060.34;4133875;28;20640;-81
2023/07/31 07:34:35;;;;;;;5.70;1.90;;;;;;;25.39;65.94;98064.31;4142698;28;20620;-83
2023/07/31 07:36:38;;;;;;;3.60;1.90;;;;;;;25.60;65.01;98065.03;4153951;28;20632;-81
2023/07/31 07:38:42;;;;;;;3.20;2.00;;;;;;;25.50;63.59;98064.59;4153920;28;20631;-82
2023/07/31 07:40:46;;;;;;;11.23;2.23;;;;;;;25.08;64.45;98055.06;4156174;28;21060;-78
2023/07/31 07:42:51;;;;;;;5.60;2.00;;;;;;;24.94;64.68;98048.81;4146857;28;20704;-81
2023/07/31 07:44:55;;;;;;;3.77;1.83;;;;;;;24.91;66.33;98054.53;4151747;28;20700;-82
2023/07/31 07:46:58;;;;;;;2.57;1.60;;;;;;;24.80;64.38;98049.72;4151126;28;20619;-83
2023/07/31 07:49:01;;;;;;;4.80;2.53;;;;;;;24.57;64.56;98045.63;4136530;28;20985;-81
2023/07/31 07:51:04;;;;;;;2.43;1.63;;;;;;;24.29;65.58;98044.72;4131081;28;20638;-82
2023/07/31 07:53:07;;;;;;;3.90;1.70;;;;;;;24.23;65.81;98045.47;4139810;28;21468;-83
2023/07/31 07:55:11;;;;;;;3.60;2.43;;;;;;;24.12;65.03;98039.03;4117663;28;20634;-83
2023/07/31 07:57:14;;;;;;;3.00;1.80;;;;;;;24.19;66.56;98038.06;4151324;28;20759;-82
2023/07/31 07:59:17;;;;;;;4.40;2.17;;;;;;;24.32;66.25;98041.72;4152314;28;21000;-82
2023/07/31 08:01:21;;;;;;;3.57;2.13;;;;;;;24.32;66.19;98041.72;4137636;28;20653;-82
2023/07/31 08:03:25;;;;;;;9.37;3.50;;;;;;;24.12;64.48;98036.38;4154013;28;20661;-82
2023/07/31 08:05:28;;;;;;;3.30;1.73;;;;;;;23.91;65.22;98033.69;4155009;28;20712;-82
2023/07/31 08:07:35;;;;;;;6.97;2.43;;;;;;;24.03;65.79;98038.31;4148754;28;20639;-82
2023/07/31 08:09:37;;;;;;;4.17;2.20;;;;;;;24.32;67.72;98039.03;4133673;28;20635;-81
2023/07/31 08:11:40;;;;;;;16.77;4.50;;;;;;;24.58;64.99;98025.94;4151013;28;20746;-83
2023/07/31 08:13:43;;;;;;;13.97;5.10;;;;;;;24.93;65.91;98028.47;4151108;28;20741;-82
2023/07/31 08:15:45;;;;;;;5.97;2.63;;;;;;;25.17;65.32;98025.38;4135525;28;20643;-83
2023/07/31 08:17:50;;;;;;;5.87;2.30;;;;;;;25.26;65.62;98029.53;4151386;28;20654;-81
2023/07/31 08:19:53;;;;;;;4.10;2.73;;;;;;;25.27;65.24;98026.66;4151987;28;20646;-82
2023/07/31 08:21:56;;;;;;;3.20;2.20;;;;;;;25.28;62.91;98022.94;4155387;28;21061;-83
2023/07/31 08:24:00;;;;;;;2.30;1.70;;;;;;;25.40;62.79;98023.22;4124316;28;20666;-79
2023/07/31 08:26:03;;;;;;;5.10;2.10;;;;;;;25.57;62.74;98025.34;4155507;28;20694;-81
2023/07/31 08:28:07;;;;;;;2.90;1.87;;;;;;;25.57;62.61;98016.53;4139385;28;21017;-82
2023/07/31 08:30:11;;;;;;;2.23;1.50;;;;;;;25.53;62.46;98015.25;4142494;28;20714;-82
2023/07/31 08:32:13;;;;;;;3.20;1.77;;;;;;;25.48;62.53;98013.19;4142091;28;20682;-82
2023/07/31 08:34:17;;;;;;;3.73;2.00;;;;;;;25.43;63.74;98004.13;4153232;28;20670;-83
2023/07/31 08:36:21;;;;;;;6.10;2.13;;;;;;;25.34;63.17;98005.31;4156571;28;20695;-74
2023/07/31 08:38:25;;;;;;;6.60;2.33;;;;;;;25.36;61.90;98012.09;4126533;28;21100;-75
2023/07/31 08:40:29;;;;;;;3.40;2.30;;;;;;;25.41;63.64;98004.34;4159992;28;20643;-73
2023/07/31 08:42:32;;;;;;;4.03;1.77;;;;;;;25.13;63.23;98005.41;4156711;28;20644;-73
2023/07/31 08:44:36;;;;;;;4.40;2.10;;;;;;;25.07;63.35;98006.19;4139600;28;21236;-75
2023/07/31 08:46:39;;;;;;;3.93;2.10;;;;;;;25.01;64.10;97998.16;4155474;28;20639;-74
2023/07/31 08:48:44;;;;;;;3.67;2.10;;;;;;;25.25;63.93;97991.28;4134625;28;21018;-73
2023/07/31 08:50:48;;;;;;;5.23;3.30;;;;;;;25.66;64.22;97989.44;4138687;28;20680;-73
2023/07/31 08:52:52;;;;;;;8.70;2.37;;;;;;;25.69;63.08;98000.56;4157083;28;20631;-73
2023/07/31 08:54:57;;;;;;;6.97;2.60;;;;;;;25.40;62.91;97985.81;4142681;28;20627;-73
2023/07/31 08:57:01;;;;;;;6.00;1.93;;;;;;;25.56;62.38;97998.81;4157498;28;20618;-75
2023/07/31 08:59:04;;;;;;;4.23;1.93;;;;;;;25.62;62.66;97993.53;4155092;28;20722;-75
2023/07/31 09:01:07;;;;;;;2.80;1.70;;;;;;;25.46;62.38;97995.72;4155809;28;21003;-74
2023/07/31 09:03:12;;;;;;;5.00;2.30;;;;;;;25.42;62.94;97995.28;4143275;28;20656;-75
2023/07/31 09:05:16;;;;;;;2.60;1.90;;;;;;;25.09;62.32;97987.31;4156833;28;20672;-73
2023/07/31 09:07:21;;;;;;;3.43;2.00;;;;;;;24.83;62.82;97987.13;4140235;28;20646;-72
2023/07/31 09:09:24;;;;;;;2.67;1.90;;;;;;;24.53;63.98;97977.66;4158993;28;20644;-73
2023/07/31 09:11:27;;;;;;;4.53;2.60;;;;;;;24.41;63.46;97973.88;4156046;28;21204;-73
2023/07/31 09:13:31;;;;;;;3.77;2.47;;;;;;;24.33;63.36;97982.03;4135152;28;20649;-75
2023/07/31 09:15:35;;;;;;;6.77;3.13;;;;;;;24.09;65.47;97978.09;4154597;28;20671;-75
2023/07/31 09:17:40;;;;;;;3.17;1.97;;;;;;;24.06;65.05;97973.13;4146097;28;21233;-75
2023/07/31 09:19:43;;;;;;;5.23;2.13;;;;;;;23.95;65.88;97974.47;4156643;28;20624;-74
2023/07/31 09:21:49;;;;;;;4.10;2.23;;;;;;;23.96;65.08;97964.63;4137161;28;20964;-74
2023/07/31 09:23:54;;;;;;;3.57;2.33;;;;;;;24.00;65.15;97976.56;4156140;28;21031;-74
2023/07/31 09:25:58;;;;;;;3.20;1.90;;;;;;;23.98;64.94;97981.25;4158744;28;20666;-75
2023/07/31 09:28:02;;;;;;;3.87;1.97;;;;;;;24.07;66.52;97985.44;4136148;28;21280;-74
2023/07/31 09:30:06;;;;;;;3.27;1.93;;;;;;;23.83;65.42;97985.81;4157415;28;20620;-75
2023/07/31 09:32:16;;;;;;;6.07;1.90;;;;;;;23.74;65.75;97978.97;4156936;28;21028;-74
2023/07/31 09:34:20;;;;;;;3.97;2.33;;;;;;;23.45;65.38;97967.53;4142311;28;20626;-73
2023/07/31 09:36:23;;;;;;;4.20;2.83;;;;;;;23.48;66.07;97957.31;4138405;28;20696;-75
2023/07/31 09:38:26;;;;;;;4.10;1.90;;;;;;;23.54;65.97;97967.22;4151830;28;20628;-73
2023/07/31 09:40:31;;;;;;;5.07;2.20;;;;;;;23.47;67.81;97963.66;4135498;28;20646;-73
2023/07/31 09:42:35;;;;;;;3.77;2.00;;;;;;;23.56;67.54;97969.69;4133718;28;20653;-74